Time;durP1;ratioP1;P1;durP2;ratioP2;P2;SDS_P1;SDS_P2;PMS_P1;PMS_P2;Temp;Humidity;BMP_temperature;BMP_pressure;BME280_temperature;BME280_humidity;BME280_pressure;Samples;Min_cycle;Max_cycle;Signal;HPM_P1;HPM_P2
2022/10/19 00:00:05;;;;;;;4.77;3.07;;;;;;;9.74;63.49;100248.81;350544;28;1006;-76
2022/10/19 00:00:15;;;;;;;4.55;2.85;;;;;;;9.71;63.21;100243.69;347987;28;2803;-76
2022/10/19 00:00:26;;;;;;;4.50;2.58;;;;;;;9.71;63.21;100238.44;346516;28;2949;-76
2022/10/19 00:00:36;;;;;;;4.63;2.57;;;;;;;9.68;63.46;100245.47;345931;28;3425;-76
2022/10/19 00:00:47;;;;;;;5.40;3.33;;;;;;;9.67;63.40;100243.75;346041;28;2041;-76
2022/10/19 00:01:03;;;;;;;6.00;4.10;;;;;;;9.70;63.13;100237.59;346047;28;3058;-76
2022/10/19 00:01:14;;;;;;;5.53;3.30;;;;;;;9.67;63.31;100242.91;343714;28;2107;-76
2022/10/19 00:01:24;;;;;;;4.63;2.90;;;;;;;9.65;63.38;100235.09;345033;28;1120;-76
2022/10/19 00:01:35;;;;;;;4.73;3.17;;;;;;;9.71;63.26;100248.91;343593;28;1193;-76
2022/10/19 00:01:45;;;;;;;4.22;3.10;;;;;;;9.74;62.93;100243.59;344907;28;1328;-76
2022/10/19 00:01:56;;;;;;;5.05;3.58;;;;;;;9.75;63.18;100245.31;344992;28;1437;-76
2022/10/19 00:02:06;;;;;;;5.03;3.50;;;;;;;9.73;62.97;100236.66;343141;28;1070;-76
2022/10/19 00:02:17;;;;;;;5.97;4.00;;;;;;;9.73;63.10;100241.88;343483;28;1271;-76
2022/10/19 00:02:27;;;;;;;6.57;4.77;;;;;;;9.70;62.86;100241.97;343479;28;1375;-76
2022/10/19 00:02:37;;;;;;;7.60;6.13;;;;;;;9.66;63.01;100241.19;344930;28;1040;-76
2022/10/19 00:02:48;;;;;;;7.72;5.90;;;;;;;9.63;63.22;100246.50;346595;28;1734;-76
2022/10/19 00:02:58;;;;;;;7.20;5.13;;;;;;;9.62;63.34;100237.78;344858;28;2135;-76
2022/10/19 00:03:09;;;;;;;5.72;3.45;;;;;;;9.64;63.21;100236.00;347660;28;1299;-77
2022/10/19 00:03:19;;;;;;;4.80;2.73;;;;;;;9.64;63.36;100241.22;347496;28;1018;-77
2022/10/19 00:03:30;;;;;;;4.93;2.70;;;;;;;9.63;63.23;100236.03;347554;28;1222;-77
2022/10/19 00:03:40;;;;;;;5.07;2.90;;;;;;;9.64;63.58;100236.00;345026;28;953;-77
2022/10/19 00:03:54;;;;;;;5.63;3.20;;;;;;;9.63;63.40;100236.91;344811;28;1188;-77
2022/10/19 00:04:04;;;;;;;4.80;3.13;;;;;;;9.63;63.06;100241.25;344994;28;1007;-77
2022/10/19 00:04:15;;;;;;;4.82;3.05;;;;;;;9.62;63.36;100229.97;345420;28;1300;-77
2022/10/19 00:04:25;;;;;;;5.37;3.00;;;;;;;9.61;63.33;100241.31;344927;28;1300;-77
2022/10/19 00:04:36;;;;;;;7.40;3.80;;;;;;;9.60;63.03;100231.75;339730;28;1669;-77
2022/10/19 00:04:46;;;;;;;8.13;4.40;;;;;;;9.62;63.17;100234.31;344065;28;1319;-76
2022/10/19 00:04:56;;;;;;;7.47;4.80;;;;;;;9.58;63.36;100236.16;343651;28;981;-76
2022/10/19 00:05:07;;;;;;;6.63;5.00;;;;;;;9.57;63.09;100236.19;345041;28;855;-76
2022/10/19 00:05:17;;;;;;;5.40;4.13;;;;;;;9.54;63.13;100233.66;344256;28;2099;-77
2022/10/19 00:05:28;;;;;;;5.67;3.60;;;;;;;9.54;63.60;100241.50;344114;28;1335;-77
2022/10/19 00:05:38;;;;;;;5.27;3.60;;;;;;;9.54;63.62;100234.53;342350;28;782;-77
2022/10/19 00:05:48;;;;;;;5.80;3.80;;;;;;;9.54;63.38;100236.28;338714;29;1724;-76
2022/10/19 00:05:59;;;;;;;5.00;3.60;;;;;;;9.54;63.05;100237.13;340090;29;945;-76
2022/10/19 00:06:13;;;;;;;6.03;4.43;;;;;;;9.56;63.23;100229.25;340098;28;3915;-76
2022/10/19 00:06:25;;;;;;;6.88;4.85;;;;;;;9.56;63.22;100232.72;340498;29;1898;-77
2022/10/19 00:06:36;;;;;;;6.25;4.45;;;;;;;9.57;63.29;100234.44;338373;29;1756;-76
2022/10/19 00:06:46;;;;;;;4.72;3.63;;;;;;;9.55;63.09;100238.84;339438;29;1400;-77
2022/10/19 00:06:57;;;;;;;9.40;6.67;;;;;;;9.55;62.86;100236.25;337347;29;1330;-77
2022/10/19 00:07:07;;;;;;;10.60;7.67;;;;;;;9.53;63.33;100230.19;338148;29;1306;-76
2022/10/19 00:07:17;;;;;;;13.87;10.53;;;;;;;9.54;63.16;100233.66;338950;29;1459;-76
2022/10/19 00:07:28;;;;;;;10.70;8.23;;;;;;;9.55;63.43;100230.16;335541;29;1560;-76
2022/10/19 00:07:38;;;;;;;10.00;7.50;;;;;;;9.53;62.96;100232.81;334496;29;1201;-76
2022/10/19 00:07:49;;;;;;;6.75;4.68;;;;;;;9.54;63.19;100231.91;333607;29;1915;-76
2022/10/19 00:08:00;;;;;;;5.43;3.87;;;;;;;9.54;62.84;100231.06;330718;29;1262;-76
2022/10/19 00:08:11;;;;;;;5.28;3.70;;;;;;;9.52;63.03;100235.50;333180;29;1299;-76
2022/10/19 00:08:21;;;;;;;5.00;3.63;;;;;;;9.53;62.83;100226.75;335709;29;838;-77
2022/10/19 00:08:31;;;;;;;5.13;3.60;;;;;;;9.53;62.89;100230.19;333586;29;1051;-76
2022/10/19 00:08:42;;;;;;;5.57;3.77;;;;;;;9.53;62.74;100224.16;332662;29;1597;-77
2022/10/19 00:08:57;;;;;;;5.72;3.70;;;;;;;9.50;62.79;100230.31;330777;29;828;-76
2022/10/19 00:09:11;;;;;;;4.93;3.17;;;;;;;9.49;62.88;100227.75;327033;30;868;-77
2022/10/19 00:09:21;;;;;;;4.82;3.75;;;;;;;9.53;62.85;100229.38;325726;30;1288;-76
2022/10/19 00:09:32;;;;;;;5.63;4.33;;;;;;;9.53;62.90;100234.59;326732;30;2124;-76
2022/10/19 00:09:43;;;;;;;5.33;4.33;;;;;;;9.55;62.97;100233.63;326808;30;2113;-76
2022/10/19 00:09:53;;;;;;;7.05;4.90;;;;;;;9.57;62.62;100230.97;325896;30;943;-76
2022/10/19 00:10:04;;;;;;;6.43;3.83;;;;;;;9.58;62.67;100228.31;327200;29;2017;-75
2022/10/19 00:10:14;;;;;;;6.30;3.63;;;;;;;9.58;62.56;100227.47;327782;30;1371;-75
2022/10/19 00:10:25;;;;;;;4.60;3.33;;;;;;;9.57;62.46;100226.59;329603;30;817;-75
2022/10/19 00:10:38;;;;;;;5.60;4.23;;;;;;;9.57;62.41;100225.75;329186;30;970;-75
2022/10/19 00:10:49;;;;;;;5.75;3.72;;;;;;;9.56;62.71;100230.13;331156;29;1675;-75
2022/10/19 00:11:00;;;;;;;5.97;3.35;;;;;;;9.57;62.36;100230.97;326000;30;2570;-76
2022/10/19 00:11:11;;;;;;;5.85;3.38;;;;;;;9.55;62.62;100222.31;320837;30;2185;-77
2022/10/19 00:11:22;;;;;;;6.90;4.20;;;;;;;9.54;62.34;100226.69;323470;30;1224;-77
2022/10/19 00:11:33;;;;;;;7.75;5.00;;;;;;;9.52;62.50;100228.50;320084;30;2437;-76
2022/10/19 00:11:46;;;;;;;9.12;5.28;;;;;;;9.51;62.21;100226.81;316607;31;2775;-76
2022/10/19 00:11:56;;;;;;;7.63;4.75;;;;;;;9.54;62.06;100226.69;312976;31;3515;-76
2022/10/19 00:12:07;;;;;;;6.38;4.25;;;;;;;9.55;62.25;100228.41;315139;31;3164;-76
2022/10/19 00:12:17;;;;;;;4.67;3.73;;;;;;;9.54;62.13;100226.69;316667;31;2653;-76
2022/10/19 00:12:27;;;;;;;6.57;5.13;;;;;;;9.55;62.11;100228.41;317077;31;1961;-76
2022/10/19 00:12:38;;;;;;;6.53;4.93;;;;;;;9.57;62.42;100223.13;315645;31;2978;-76
2022/10/19 00:12:48;;;;;;;7.13;5.00;;;;;;;9.56;62.14;100229.25;316770;30;1939;-76
2022/10/19 00:12:59;;;;;;;6.32;4.28;;;;;;;9.56;62.11;100224.03;312418;31;2802;-76
2022/10/19 00:13:09;;;;;;;6.80;4.77;;;;;;;9.54;62.48;100226.69;311592;31;1974;-76
2022/10/19 00:13:19;;;;;;;6.68;5.00;;;;;;;9.54;62.17;100226.69;312122;31;2845;-77
2022/10/19 00:13:30;;;;;;;6.93;5.17;;;;;;;9.54;62.12;100221.47;312499;31;3303;-76
2022/10/19 00:13:40;;;;;;;6.93;5.13;;;;;;;9.51;62.59;100226.81;314243;31;858;-76
2022/10/19 00:13:51;;;;;;;6.60;4.80;;;;;;;9.50;62.45;100222.47;308580;31;2163;-76
2022/10/19 00:14:02;;;;;;;9.45;7.82;;;;;;;9.43;62.34;100223.53;305290;32;3568;-76
2022/10/19 00:14:15;;;;;;;10.85;9.55;;;;;;;9.45;62.58;100231.31;306455;31;3139;-76
2022/10/19 00:14:25;;;;;;;12.68;11.32;;;;;;;9.41;62.12;100225.31;306429;32;1255;-78
2022/10/19 00:14:35;;;;;;;10.90;8.87;;;;;;;9.39;62.64;100221.03;307098;32;1653;-77
2022/10/19 00:14:46;;;;;;;10.35;7.60;;;;;;;9.39;62.40;100221.91;305725;32;2102;-77
2022/10/19 00:14:56;;;;;;;10.77;7.23;;;;;;;9.32;62.89;100226.41;303182;32;3158;-77
2022/10/19 00:15:07;;;;;;;10.27;7.95;;;;;;;9.31;63.06;100223.84;301851;32;1288;-77
2022/10/19 00:15:17;;;;;;;13.15;10.73;;;;;;;9.30;62.61;100222.13;299471;32;3903;-77
2022/10/19 00:15:28;;;;;;;40.03;23.47;;;;;;;9.30;62.90;100227.34;301259;32;4257;-77
2022/10/19 00:15:39;;;;;;;62.33;30.40;;;;;;;9.26;62.72;100223.09;301231;32;1403;-77
2022/10/19 00:15:49;;;;;;;68.65;31.10;;;;;;;9.24;63.36;100227.50;302220;32;4449;-77
2022/10/19 00:16:00;;;;;;;50.60;23.27;;;;;;;9.26;62.83;100223.09;301848;32;4784;-77
2022/10/19 00:16:12;;;;;;;32.50;16.17;;;;;;;9.24;63.04;100219.66;299056;32;1461;-77
2022/10/19 00:16:22;;;;;;;8.60;5.70;;;;;;;9.23;63.09;100224.03;304332;32;1337;-77
2022/10/19 00:16:34;;;;;;;7.00;4.03;;;;;;;9.23;62.92;100229.25;302479;32;4300;-77
2022/10/19 00:16:45;;;;;;;6.95;3.65;;;;;;;9.23;62.97;100224.03;297107;32;2962;-76
2022/10/19 00:16:57;;;;;;;6.22;3.63;;;;;;;9.23;62.85;100226.66;295134;32;3112;-77
2022/10/19 00:17:07;;;;;;;7.22;4.47;;;;;;;9.25;63.07;100218.78;296151;33;1470;-77
2022/10/19 00:17:17;;;;;;;7.50;4.28;;;;;;;9.26;62.88;100223.09;295173;33;4027;-77
2022/10/19 00:17:28;;;;;;;6.77;4.13;;;;;;;9.26;62.84;100220.50;294821;33;5565;-77
2022/10/19 00:17:38;;;;;;;6.38;4.28;;;;;;;9.27;62.98;100217.84;296116;33;1292;-77
2022/10/19 00:17:49;;;;;;;8.13;5.03;;;;;;;9.25;62.72;100218.78;291364;33;6935;-77
2022/10/19 00:18:00;;;;;;;8.38;4.95;;;;;;;9.27;62.53;100212.63;290506;33;7298;-77
2022/10/19 00:18:10;;;;;;;7.95;4.53;;;;;;;9.30;62.94;100216.91;288254;34;4199;-76
2022/10/19 00:18:21;;;;;;;7.07;4.50;;;;;;;9.32;62.75;100220.34;284483;34;7165;-76
2022/10/19 00:18:31;;;;;;;8.20;4.95;;;;;;;9.33;62.59;100214.22;281116;34;6913;-76
2022/10/19 00:18:45;;;;;;;8.67;5.23;;;;;;;9.35;62.34;100215.03;277943;35;6574;-76
2022/10/19 00:18:56;;;;;;;8.63;4.78;;;;;;;9.33;62.22;100215.06;274813;36;1440;-77
2022/10/19 00:19:08;;;;;;;8.55;4.25;;;;;;;9.35;62.42;100215.03;274017;36;1323;-78
2022/10/19 00:19:21;;;;;;;8.23;4.97;;;;;;;9.36;62.22;100216.75;271963;36;4858;-78
2022/10/19 00:19:31;;;;;;;7.68;5.35;;;;;;;9.34;62.30;100216.78;270383;36;6851;-78
2022/10/19 00:19:42;;;;;;;7.57;5.00;;;;;;;9.35;62.20;100212.41;269095;36;8570;-78
2022/10/19 00:19:52;;;;;;;8.35;5.10;;;;;;;9.34;62.12;100216.78;270651;36;1338;-77
2022/10/19 00:22:09;;;;;;;6.70;2.74;;;;;;;9.29;62.19;100205.59;2500537;27;21587;-76
2022/10/19 00:22:19;;;;;;;5.43;3.17;;;;;;;9.30;62.38;100206.47;353135;28;1342;-77
2022/10/19 00:22:29;;;;;;;6.83;3.67;;;;;;;9.30;62.35;100202.09;350410;28;1286;-77
2022/10/19 00:22:40;;;;;;;8.18;3.42;;;;;;;9.32;62.36;100209.88;349078;28;1347;-77
2022/10/19 00:22:50;;;;;;;13.17;4.07;;;;;;;9.33;62.39;100211.59;347576;28;1306;-76
2022/10/19 00:23:01;;;;;;;12.17;4.20;;;;;;;9.31;62.52;100211.66;349002;28;1396;-78
2022/10/19 00:23:11;;;;;;;11.18;3.90;;;;;;;9.29;62.53;100205.59;350394;28;1335;-76
2022/10/19 00:23:21;;;;;;;7.43;3.63;;;;;;;9.27;62.41;100202.16;349654;28;1200;-76
2022/10/19 00:23:32;;;;;;;7.13;3.53;;;;;;;9.28;62.40;100209.09;348537;28;2023;-76
2022/10/19 00:23:43;;;;;;;6.22;3.28;;;;;;;9.31;62.73;100208.16;351748;28;1546;-76
2022/10/19 00:23:53;;;;;;;5.80;3.13;;;;;;;9.33;62.39;100209.00;348518;28;3542;-77
2022/10/19 00:24:04;;;;;;;6.47;2.97;;;;;;;9.33;62.23;100204.63;346877;28;5003;-76
2022/10/19 00:24:15;;;;;;;6.70;3.20;;;;;;;9.35;62.44;100212.41;346671;28;938;-76
2022/10/19 00:24:25;;;;;;;8.93;4.45;;;;;;;9.34;62.42;100200.25;349082;28;1763;-76
2022/10/19 00:24:36;;;;;;;8.70;4.77;;;;;;;9.36;62.15;100200.22;347580;28;1387;-76
2022/10/19 00:24:46;;;;;;;7.53;3.88;;;;;;;9.32;62.24;100204.66;348919;28;1234;-76
2022/10/19 00:24:56;;;;;;;5.87;3.07;;;;;;;9.30;62.23;100209.06;347730;28;1385;-76
2022/10/19 00:25:07;;;;;;;5.95;2.80;;;;;;;9.29;62.51;100207.34;347209;28;1607;-76
2022/10/19 00:25:17;;;;;;;6.10;3.10;;;;;;;9.28;62.50;100193.44;346275;28;1398;-76
2022/10/19 00:25:28;;;;;;;6.68;3.17;;;;;;;9.29;62.06;100207.34;346161;28;1515;-76
2022/10/19 00:25:38;;;;;;;5.97;3.07;;;;;;;9.32;62.36;100205.53;346271;28;1284;-76
2022/10/19 00:25:55;;;;;;;5.75;2.85;;;;;;;9.30;62.18;100201.22;347497;28;1421;-76
2022/10/19 00:26:08;;;;;;;7.40;2.90;;;;;;;9.30;62.55;100206.47;350056;28;1103;-76
2022/10/19 00:26:18;;;;;;;8.07;3.15;;;;;;;9.29;62.19;100204.75;346186;28;1391;-76
2022/10/19 00:26:28;;;;;;;7.85;3.03;;;;;;;9.27;62.35;100199.56;346273;28;1495;-76
2022/10/19 00:26:39;;;;;;;5.03;2.70;;;;;;;9.26;62.35;100200.47;346234;28;1483;-76
2022/10/19 00:26:49;;;;;;;5.72;3.03;;;;;;;9.25;62.28;100203.09;347370;28;2041;-76
2022/10/19 00:27:00;;;;;;;6.27;3.90;;;;;;;9.25;62.14;100193.53;347597;28;1251;-77
2022/10/19 00:27:10;;;;;;;6.25;3.90;;;;;;;9.22;62.96;100192.75;346206;28;1340;-77
2022/10/19 00:27:20;;;;;;;6.47;3.70;;;;;;;9.23;62.14;100197.06;344931;28;877;-77
2022/10/19 00:27:31;;;;;;;6.43;3.35;;;;;;;9.24;62.37;100193.56;344912;28;951;-76
2022/10/19 00:27:41;;;;;;;7.27;3.70;;;;;;;9.23;62.74;100199.69;344717;28;1201;-76
2022/10/19 00:27:52;;;;;;;7.70;3.92;;;;;;;9.24;62.75;100196.16;344746;28;1224;-76
2022/10/19 00:28:02;;;;;;;7.40;4.03;;;;;;;9.26;62.41;100190.00;342813;28;1213;-76
2022/10/19 00:28:12;;;;;;;6.13;3.53;;;;;;;9.27;62.30;100203.94;343539;28;986;-76
2022/10/19 00:28:23;;;;;;;7.17;3.90;;;;;;;9.27;62.65;100201.31;344752;28;1300;-76
2022/10/19 00:28:33;;;;;;;7.68;3.72;;;;;;;9.25;62.50;100201.34;342021;28;1357;-76
2022/10/19 00:28:44;;;;;;;7.43;3.63;;;;;;;9.26;62.74;100199.59;344196;28;1375;-76
2022/10/19 00:28:55;;;;;;;6.22;3.03;;;;;;;9.24;62.51;100201.38;344757;28;1534;-76
2022/10/19 00:29:05;;;;;;;6.68;3.60;;;;;;;9.25;62.39;100197.88;343486;28;1359;-76
2022/10/19 00:29:16;;;;;;;7.00;3.53;;;;;;;9.27;62.68;100196.09;341894;28;1631;-76
2022/10/19 00:29:26;;;;;;;6.32;3.28;;;;;;;9.28;62.73;100193.44;342142;28;1209;-77
2022/10/19 00:29:37;;;;;;;6.33;3.10;;;;;;;9.30;62.82;100196.00;342154;28;1194;-77
2022/10/19 00:29:47;;;;;;;6.75;3.47;;;;;;;9.29;62.77;100194.28;346551;28;2965;-77
2022/10/19 00:29:57;;;;;;;7.40;4.30;;;;;;;9.28;62.52;100198.66;346537;28;1735;-76
2022/10/19 00:30:08;;;;;;;10.83;5.53;;;;;;;9.26;62.87;100183.94;346151;28;1488;-76
2022/10/19 00:30:18;;;;;;;17.77;7.20;;;;;;;9.27;62.48;100193.47;346628;28;1598;-76
2022/10/19 00:30:29;;;;;;;18.13;6.83;;;;;;;9.27;62.43;100201.31;347525;28;2922;-76
2022/10/19 00:30:39;;;;;;;10.05;4.93;;;;;;;9.28;62.40;100192.59;340827;29;1233;-76
2022/10/19 00:30:50;;;;;;;7.10;3.97;;;;;;;9.29;62.52;100196.91;342016;28;1563;-76
2022/10/19 00:31:04;;;;;;;6.47;3.30;;;;;;;9.28;62.48;100195.19;341519;28;1993;-76
2022/10/19 00:31:16;;;;;;;5.72;2.72;;;;;;;9.27;62.72;100191.72;340706;29;1530;-76
2022/10/19 00:31:26;;;;;;;5.22;2.70;;;;;;;9.26;62.36;100199.59;338365;29;901;-76
2022/10/19 00:31:36;;;;;;;5.77;2.83;;;;;;;9.26;62.28;100199.59;342077;28;893;-76
2022/10/19 00:31:49;;;;;;;6.30;3.00;;;;;;;9.27;62.65;100190.88;340737;29;1266;-76
2022/10/19 00:31:59;;;;;;;6.90;3.65;;;;;;;9.27;62.61;100196.09;337560;29;1477;-76
2022/10/19 00:32:10;;;;;;;7.60;5.13;;;;;;;9.25;62.67;100192.66;333206;29;863;-76
2022/10/19 00:32:20;;;;;;;7.43;5.07;;;;;;;9.24;62.40;100196.16;333740;29;1885;-76
2022/10/19 00:32:30;;;;;;;6.85;4.47;;;;;;;9.23;62.38;100191.84;335413;29;1864;-76
2022/10/19 00:32:41;;;;;;;6.10;3.60;;;;;;;9.22;62.65;100188.38;331959;29;856;-76
2022/10/19 00:32:51;;;;;;;5.93;3.60;;;;;;;9.22;62.41;100197.97;334626;29;2069;-76
2022/10/19 00:33:03;;;;;;;6.40;3.67;;;;;;;9.23;62.74;100194.44;332209;29;2269;-76
2022/10/19 00:33:19;;;;;;;5.60;3.00;;;;;;;9.22;62.57;100190.13;329445;29;1672;-76
2022/10/19 00:33:30;;;;;;;7.57;2.78;;;;;;;9.23;62.36;100189.22;329160;29;1674;-76
2022/10/19 00:33:40;;;;;;;8.63;3.00;;;;;;;9.21;62.52;100196.25;333056;29;1252;-76
2022/10/19 00:33:51;;;;;;;5.72;2.45;;;;;;;9.21;63.07;100191.03;333690;29;1550;-75
2022/10/19 00:34:02;;;;;;;7.03;3.40;;;;;;;9.23;62.35;100194.44;331256;29;2521;-76
2022/10/19 00:34:12;;;;;;;6.90;3.53;;;;;;;9.22;62.83;100190.13;329106;30;2065;-76
2022/10/19 00:34:23;;;;;;;7.03;3.53;;;;;;;9.23;62.64;100190.09;328286;29;1284;-76
2022/10/19 00:34:33;;;;;;;6.00;2.90;;;;;;;9.23;62.49;100194.44;329455;29;2550;-76
2022/10/19 00:34:44;;;;;;;5.38;2.60;;;;;;;9.21;62.85;100185.81;330397;29;2471;-76
2022/10/19 00:34:54;;;;;;;5.87;3.00;;;;;;;9.19;62.86;100192.81;330631;29;1341;-76
2022/10/19 00:35:05;;;;;;;7.22;4.13;;;;;;;9.19;62.96;100188.44;328517;29;2672;-76
2022/10/19 00:35:15;;;;;;;6.68;4.05;;;;;;;9.22;62.52;100192.75;324631;30;2618;-76
2022/10/19 00:35:26;;;;;;;6.67;4.27;;;;;;;9.21;62.56;100191.03;325829;30;1200;-76
2022/10/19 00:35:39;;;;;;;5.72;3.05;;;;;;;9.20;62.32;100189.31;330001;29;3966;-76
2022/10/19 00:35:50;;;;;;;5.90;3.10;;;;;;;9.21;62.56;100185.81;326176;30;3183;-76
2022/10/19 00:36:01;;;;;;;6.75;3.95;;;;;;;9.17;62.77;100184.16;327753;29;1731;-76
2022/10/19 00:36:14;;;;;;;6.97;4.17;;;;;;;9.14;62.90;100186.84;326951;30;1910;-76
2022/10/19 00:36:29;;;;;;;7.35;4.10;;;;;;;9.14;63.04;100184.25;328314;30;1094;-76
2022/10/19 00:36:40;;;;;;;5.18;2.80;;;;;;;9.14;62.92;100189.47;324648;30;935;-76
2022/10/19 00:36:50;;;;;;;5.93;2.95;;;;;;;9.13;62.85;100185.13;321101;30;3157;-76
2022/10/19 00:37:01;;;;;;;6.90;3.47;;;;;;;9.12;62.59;100193.88;323154;30;3186;-76
2022/10/19 00:37:11;;;;;;;7.15;3.55;;;;;;;9.08;63.28;100180.06;322138;30;1346;-76
2022/10/19 00:37:22;;;;;;;6.80;3.57;;;;;;;9.09;63.03;100187.00;320543;30;3424;-76
2022/10/19 00:37:32;;;;;;;6.43;3.25;;;;;;;9.09;63.14;100186.16;322760;30;3264;-76
2022/10/19 00:37:42;;;;;;;7.93;4.07;;;;;;;9.08;63.35;100179.22;323064;30;1455;-76
2022/10/19 00:37:53;;;;;;;8.27;4.43;;;;;;;9.10;63.00;100190.47;314196;31;856;-76
2022/10/19 00:38:03;;;;;;;9.73;5.43;;;;;;;9.08;63.36;100180.06;317094;30;1855;-76
2022/10/19 00:38:14;;;;;;;9.20;4.90;;;;;;;9.05;63.21;100180.13;315970;31;3240;-76
2022/10/19 00:38:25;;;;;;;10.15;5.03;;;;;;;9.09;63.03;100191.38;315436;31;851;-76
2022/10/19 00:38:35;;;;;;;9.05;4.60;;;;;;;9.08;63.47;100182.69;314882;31;3118;-76
2022/10/19 00:38:46;;;;;;;8.50;4.60;;;;;;;9.08;63.13;100180.06;311603;31;3860;-76
2022/10/19 00:38:56;;;;;;;7.10;4.30;;;;;;;9.09;63.13;100180.91;310180;31;1979;-76
2022/10/19 00:39:10;;;;;;;6.88;3.75;;;;;;;9.12;63.13;100186.03;313966;31;4494;-76
2022/10/19 00:39:20;;;;;;;7.78;4.20;;;;;;;9.12;63.45;100181.66;313304;31;4353;-76
2022/10/19 00:39:31;;;;;;;7.97;4.37;;;;;;;9.13;63.36;100187.75;310878;31;4377;-76
2022/10/19 00:39:41;;;;;;;7.82;4.43;;;;;;;9.14;63.31;100189.47;312003;31;1497;-76
2022/10/19 00:39:51;;;;;;;6.97;4.03;;;;;;;9.14;63.27;100189.47;315399;31;4388;-76
2022/10/19 00:40:02;;;;;;;6.57;3.73;;;;;;;9.13;63.55;100185.13;312817;31;3303;-76
2022/10/19 00:40:12;;;;;;;7.07;3.87;;;;;;;9.14;63.35;100181.63;309401;31;2462;-76
2022/10/19 00:40:23;;;;;;;7.00;3.85;;;;;;;9.15;63.43;100180.72;308864;32;892;-76
2022/10/19 00:40:37;;;;;;;7.23;4.10;;;;;;;9.16;63.29;100185.91;307506;32;3839;-76
2022/10/19 00:40:48;;;;;;;6.68;3.40;;;;;;;9.16;63.35;100177.22;304073;32;5926;-76
2022/10/19 00:40:58;;;;;;;6.90;3.70;;;;;;;9.19;63.41;100192.81;303025;32;5952;-76
2022/10/19 00:41:09;;;;;;;7.35;4.18;;;;;;;9.20;63.26;100190.16;305528;32;1280;-76
2022/10/19 00:41:20;;;;;;;7.37;4.47;;;;;;;9.20;63.47;100179.72;304028;32;5477;-76
2022/10/19 00:41:31;;;;;;;6.53;3.67;;;;;;;9.19;63.47;100190.19;301074;32;7182;-76
2022/10/19 00:41:42;;;;;;;5.90;3.58;;;;;;;9.15;63.19;100186.81;299483;33;3116;-76
2022/10/19 00:41:52;;;;;;;8.77;5.20;;;;;;;9.17;63.70;100189.38;297652;32;5837;-76
2022/10/19 00:42:02;;;;;;;9.38;5.63;;;;;;;9.17;63.08;100186.78;297907;33;6531;-76
2022/10/19 00:42:13;;;;;;;8.90;5.40;;;;;;;9.18;63.43;100185.88;297775;33;4781;-76
2022/10/19 00:42:23;;;;;;;6.00;4.27;;;;;;;9.20;63.47;100184.09;293782;33;1549;-76
2022/10/19 00:42:34;;;;;;;7.23;5.07;;;;;;;9.20;62.82;100189.31;291889;33;5201;-76
2022/10/19 00:42:44;;;;;;;8.03;5.27;;;;;;;9.18;63.24;100181.50;288937;34;6253;-76
2022/10/19 00:42:55;;;;;;;7.97;5.17;;;;;;;9.18;63.27;100191.09;291060;34;1059;-76
2022/10/19 00:43:15;;;;;;;6.88;4.10;;;;;;;9.17;63.39;100186.78;291648;33;7676;-76
2022/10/19 00:43:27;;;;;;;7.88;4.70;;;;;;;9.18;63.72;100185.88;289335;34;1693;-76
2022/10/19 00:45:36;;;;;;;5.92;2.60;;;;;;;9.20;63.68;100178.88;2504803;27;20264;-76
2022/10/19 00:45:46;;;;;;;5.03;2.27;;;;;;;9.20;63.70;100178.88;353231;28;1303;-76
2022/10/19 00:45:57;;;;;;;4.60;2.30;;;;;;;9.20;62.78;100178.88;350717;28;1021;-76
2022/10/19 00:46:12;;;;;;;5.35;3.13;;;;;;;9.21;63.90;100177.97;348335;28;1451;-76
2022/10/19 00:46:23;;;;;;;5.70;3.20;;;;;;;9.21;63.62;100171.00;350703;28;1283;-76
2022/10/19 00:46:35;;;;;;;5.50;2.97;;;;;;;9.21;63.43;100177.97;347957;28;1239;-76
2022/10/19 00:46:48;;;;;;;6.03;3.05;;;;;;;9.20;63.66;100179.72;346296;28;1266;-76
2022/10/19 00:47:00;;;;;;;6.07;3.03;;;;;;;9.17;63.89;100179.78;347591;28;948;-76
2022/10/19 00:47:11;;;;;;;10.96;3.50;;;;;;;9.16;63.97;100175.47;347644;28;1457;-76
2022/10/19 00:47:22;;;;;;;10.97;3.70;;;;;;;9.13;63.93;100174.69;344798;28;4236;-76
2022/10/19 00:47:32;;;;;;;10.95;3.75;;;;;;;9.13;63.89;100177.31;345767;28;3058;-76
2022/10/19 00:47:44;;;;;;;15.15;4.45;;;;;;;9.11;63.92;100174.72;346033;28;5302;-77
2022/10/19 00:47:54;;;;;;;21.73;4.78;;;;;;;9.11;63.77;100174.72;344303;28;1738;-76
2022/10/19 00:48:05;;;;;;;20.88;4.53;;;;;;;9.12;64.09;100171.22;347330;28;1309;-76
2022/10/19 00:48:22;;;;;;;4.82;2.92;;;;;;;9.13;63.96;100172.09;347760;28;1431;-76
2022/10/19 00:48:32;;;;;;;5.80;2.83;;;;;;;9.14;63.94;100179.03;347192;28;1745;-76
2022/10/19 00:48:42;;;;;;;5.10;2.45;;;;;;;9.14;63.98;100179.03;345060;28;833;-76
2022/10/19 00:48:56;;;;;;;5.40;2.87;;;;;;;9.13;64.06;100178.16;345124;28;1016;-76
2022/10/19 00:49:07;;;;;;;5.15;2.53;;;;;;;9.15;63.66;100175.50;347951;28;1505;-76
2022/10/19 00:49:38;;;;;;;5.53;2.72;;;;;;;9.14;63.91;100171.19;348530;28;1397;-76
2022/10/19 00:49:48;;;;;;;4.45;2.03;;;;;;;9.14;64.02;100179.03;344452;28;1317;-75
2022/10/19 00:49:58;;;;;;;4.47;2.00;;;;;;;9.13;63.90;100172.94;340810;29;1186;-75
2022/10/19 00:50:09;;;;;;;4.38;2.10;;;;;;;9.15;63.73;100170.28;340866;29;1359;-75
2022/10/19 00:50:20;;;;;;;5.25;2.83;;;;;;;9.15;63.91;100175.50;344723;28;1247;-77
2022/10/19 00:50:30;;;;;;;6.10;3.20;;;;;;;9.15;63.89;100172.91;344917;28;1184;-76
2022/10/19 00:50:41;;;;;;;6.53;3.92;;;;;;;9.16;63.89;100174.63;342183;28;1589;-76
2022/10/19 00:50:53;;;;;;;5.90;3.42;;;;;;;9.18;63.80;100178.03;343513;28;1423;-75
2022/10/19 00:51:03;;;;;;;5.82;3.92;;;;;;;9.18;63.77;100171.06;343021;28;1101;-75
2022/10/19 00:51:13;;;;;;;5.50;3.47;;;;;;;9.20;64.20;100168.41;340414;28;1178;-75
2022/10/19 00:51:24;;;;;;;7.00;3.90;;;;;;;9.18;63.72;100170.22;340943;29;972;-75
2022/10/19 00:51:35;;;;;;;7.67;3.90;;;;;;;9.20;63.81;100173.63;342088;28;1024;-75
2022/10/19 00:51:47;;;;;;;7.20;3.83;;;;;;;9.17;63.93;100171.09;341329;28;1317;-75
2022/10/19 00:52:04;;;;;;;5.68;3.15;;;;;;;9.15;63.85;100170.28;342828;28;1488;-75
2022/10/19 00:52:17;;;;;;;6.07;3.08;;;;;;;9.16;64.17;100172.00;343489;28;1243;-75
2022/10/19 00:52:27;;;;;;;5.47;2.80;;;;;;;9.17;63.81;100173.72;343713;28;1523;-77
2022/10/19 00:52:37;;;;;;;5.40;2.45;;;;;;;9.16;64.10;100172.00;344928;28;1343;-75
2022/10/19 00:52:48;;;;;;;6.40;3.40;;;;;;;9.15;63.93;100167.69;341205;28;902;-76
2022/10/19 00:52:58;;;;;;;7.07;3.85;;;;;;;9.12;64.12;100167.75;340730;29;1228;-76
2022/10/19 00:53:09;;;;;;;6.33;3.73;;;;;;;9.12;64.42;100165.16;340533;28;2480;-75
2022/10/19 00:53:19;;;;;;;6.05;3.15;;;;;;;9.12;64.30;100170.38;339639;28;3007;-76
2022/10/19 00:53:30;;;;;;;8.20;4.07;;;;;;;9.12;64.25;100171.22;338555;28;1297;-76
2022/10/19 00:53:40;;;;;;;10.80;5.47;;;;;;;9.12;64.04;100170.38;336746;29;1594;-76
2022/10/19 00:53:51;;;;;;;9.35;4.97;;;;;;;9.12;64.15;100170.38;335396;29;1972;-76
2022/10/19 00:54:02;;;;;;;7.90;4.30;;;;;;;9.10;64.31;100169.59;338424;29;1767;-77
2022/10/19 00:54:13;;;;;;;5.90;3.05;;;;;;;9.11;64.17;100163.44;335529;29;1640;-77
2022/10/19 00:54:24;;;;;;;5.65;3.10;;;;;;;9.12;64.14;100171.22;334200;29;1439;-76
2022/10/19 00:54:36;;;;;;;5.30;3.23;;;;;;;9.14;63.94;100168.56;335606;29;1454;-76
2022/10/19 00:54:46;;;;;;;5.55;3.20;;;;;;;9.13;64.09;100166.84;336542;29;1005;-76
2022/10/19 00:54:57;;;;;;;6.03;3.08;;;;;;;9.16;64.30;100166.78;336941;29;1012;-76
2022/10/19 00:55:07;;;;;;;6.97;3.43;;;;;;;9.13;64.15;100169.47;334435;29;1349;-76
2022/10/19 00:55:18;;;;;;;6.35;3.60;;;;;;;9.12;64.30;100159.91;333321;29;1459;-75
2022/10/19 00:55:28;;;;;;;6.05;3.55;;;;;;;9.14;63.90;100168.56;333721;29;1619;-75
2022/10/19 00:55:38;;;;;;;5.80;3.63;;;;;;;9.15;64.10;100165.94;331908;29;923;-75
2022/10/19 00:55:49;;;;;;;5.65;3.03;;;;;;;9.15;64.11;100168.53;334378;29;1719;-75
2022/10/19 00:55:59;;;;;;;5.87;3.23;;;;;;;9.17;63.98;100163.28;331593;29;1882;-77
2022/10/19 00:56:11;;;;;;;5.93;3.20;;;;;;;9.16;63.91;100161.56;329771;29;1291;-75
2022/10/19 00:56:22;;;;;;;6.97;3.92;;;;;;;9.16;64.11;100161.56;324614;30;1414;-76
2022/10/19 00:56:32;;;;;;;6.37;3.73;;;;;;;9.14;64.19;100158.13;325774;30;2175;-76
2022/10/19 00:56:43;;;;;;;5.90;3.20;;;;;;;9.14;63.83;100159.00;326903;30;1731;-76
2022/10/19 00:56:54;;;;;;;5.13;2.60;;;;;;;9.15;63.97;100165.06;326959;30;1302;-76
2022/10/19 00:57:04;;;;;;;5.00;2.22;;;;;;;9.14;63.93;100166.81;325511;30;1371;-76